Time;durP1;ratioP1;P1;durP2;ratioP2;P2;SDS_P1;SDS_P2;PMS_P1;PMS_P2;Temp;Humidity;BMP_temperature;BMP_pressure;BME280_temperature;BME280_humidity;BME280_pressure;Samples;Min_cycle;Max_cycle;Signal;HPM_P1;HPM_P2
2022/04/26 03:37:23;;;;;;;;;36.50;30.25;;;;;9.88;75.24;101254.38;5082063;28;45259;-63
2022/04/26 03:39:49;;;;;;;;;39.50;33.25;;;;;9.88;74.18;101254.38;5081802;27;45169;-64
2022/04/26 03:42:14;;;;;;;;;45.25;32.00;;;;;9.86;73.53;101257.00;5081632;28;45474;-64
2022/04/26 03:44:40;;;;;;;;;33.75;29.75;;;;;9.87;74.21;101263.91;5081366;27;45271;-64
2022/04/26 03:47:07;;;;;;;;;41.75;32.25;;;;;9.87;73.69;101256.13;5082044;27;45261;-64
2022/04/26 03:49:32;;;;;;;;;38.75;23.50;;;;;9.90;74.36;101257.81;5081387;27;45173;-64
2022/04/26 03:51:58;;;;;;;;;40.25;33.00;;;;;9.90;74.25;101257.81;5080220;28;47395;-63
2022/04/26 03:54:24;;;;;;;;;45.25;32.25;;;;;9.87;73.91;101258.72;5081495;27;45237;-64
2022/04/26 03:56:49;;;;;;;;;49.00;36.25;;;;;9.85;74.66;101260.47;5080346;28;45425;-64
2022/04/26 03:59:16;;;;;;;;;41.75;36.50;;;;;9.84;74.49;101257.91;5093381;27;45434;-64
2022/04/26 04:01:41;;;;;;;;;52.25;39.50;;;;;9.85;73.83;101265.66;5061272;28;45698;-65
2022/04/26 04:04:07;;;;;;;;;46.00;38.25;;;;;9.86;73.64;101271.72;5060696;28;45571;-65
2022/04/26 04:06:33;;;;;;;;;45.00;36.25;;;;;9.83;74.37;101272.63;5060750;27;45430;-65
2022/04/26 04:08:58;;;;;;;;;48.50;39.50;;;;;9.83;73.69;101275.22;5076393;28;45541;-65
2022/04/26 04:11:24;;;;;;;;;36.00;31.00;;;;;9.84;73.85;101269.16;5081205;28;45288;-64
2022/04/26 04:13:50;;;;;;;;;50.00;37.75;;;;;9.85;75.13;101276.06;5080884;27;45172;-64
2022/04/26 04:16:15;;;;;;;;;49.75;36.75;;;;;9.83;73.95;101267.44;5081382;27;45168;-64
2022/04/26 04:21:24;;;;;;;;;46.25;35.75;;;;;9.89;75.14;101276.84;5080990;28;45231;-67
2022/04/26 04:23:50;;;;;;;;;32.00;27.25;;;;;9.87;74.89;101276.88;5080874;27;45480;-66
2022/04/26 04:26:15;;;;;;;;;42.00;35.00;;;;;9.90;74.63;101283.75;5081236;27;45478;-66
2022/04/26 04:28:41;;;;;;;;;54.50;41.00;;;;;9.88;74.63;101288.13;5066853;27;45444;-66
2022/04/26 04:31:09;;;;;;;;;49.75;36.75;;;;;9.86;75.27;101284.69;5080913;28;45288;-65
2022/04/26 04:33:35;;;;;;;;;43.50;33.50;;;;;9.85;75.19;101296.81;5080631;27;45775;-65
2022/04/26 04:36:00;;;;;;;;;38.25;33.75;;;;;9.81;74.91;101292.56;5081066;28;45374;-65
2022/04/26 04:38:26;;;;;;;;;39.50;33.00;;;;;9.81;76.21;101294.28;5082935;27;45419;-65
2022/04/26 04:40:53;;;;;;;;;50.00;37.50;;;;;9.74;74.91;101296.97;5092165;27;45978;-65
2022/04/26 04:43:18;;;;;;;;;53.75;39.75;;;;;9.77;75.48;101298.66;5078953;28;45198;-66
2022/04/26 04:45:43;;;;;;;;;40.75;33.75;;;;;9.76;76.29;101307.31;5081314;27;45215;-66
2022/04/26 04:48:09;;;;;;;;;52.00;37.25;;;;;9.71;76.24;101304.81;5080640;27;45235;-66
2022/04/26 04:50:35;;;;;;;;;40.50;32.00;;;;;9.71;75.88;101311.75;5080782;28;45749;-66
2022/04/26 04:53:01;;;;;;;;;56.50;41.25;;;;;9.66;75.40;101305.75;5080572;27;45210;-65
2022/04/26 04:55:27;;;;;;;;;38.75;30.25;;;;;9.67;75.53;101310.06;5080710;27;45244;-65
2022/04/26 04:57:52;;;;;;;;;55.25;38.50;;;;;9.70;76.67;101315.22;5080202;27;45478;-66
2022/04/26 05:00:18;;;;;;;;;55.25;39.25;;;;;9.70;76.60;101318.66;5088017;27;46452;-66
2022/04/26 05:02:43;;;;;;;;;46.50;37.50;;;;;9.67;77.23;101323.91;5071005;27;45277;-64
2022/04/26 05:05:09;;;;;;;;;63.00;41.00;;;;;9.68;75.45;101319.56;5079316;27;45390;-65
2022/04/26 05:07:36;;;;;;;;;46.75;36.25;;;;;9.70;75.92;101323.00;5080334;28;45281;-65
2022/04/26 05:10:01;;;;;;;;;52.00;39.50;;;;;9.72;76.38;101324.69;5080617;28;45601;-64
2022/04/26 05:12:26;;;;;;;;;51.00;38.50;;;;;9.80;75.95;101329.75;5080217;28;45343;-65
2022/04/26 05:14:52;;;;;;;;;53.50;37.25;;;;;9.92;76.77;101339.13;5079467;27;45380;-65
2022/04/26 05:17:17;;;;;;;;;54.00;40.25;;;;;9.98;76.13;101345.06;5093983;27;45176;-64
2022/04/26 05:19:42;;;;;;;;;48.50;39.50;;;;;10.02;76.00;101336.38;5080029;28;45262;-65
2022/04/26 05:22:09;;;;;;;;;49.50;39.25;;;;;10.09;75.76;101338.84;5079998;27;45245;-65
2022/04/26 05:24:53;;;;;;;;;53.25;37.00;;;;;10.17;75.15;101347.38;5078609;28;45288;-65
2022/04/26 05:27:19;;;;;;;;;47.75;33.75;;;;;10.19;75.35;101348.19;5079763;27;45370;-65
2022/04/26 05:29:44;;;;;;;;;50.00;39.75;;;;;10.26;74.63;101353.31;5079479;28;45418;-65
2022/04/26 05:32:10;;;;;;;;;51.50;42.50;;;;;10.33;75.04;101351.47;5079824;27;45274;-65
2022/04/26 05:34:35;;;;;;;;;59.25;44.50;;;;;10.35;74.71;101352.31;5080116;27;45263;-65
2022/04/26 05:37:00;;;;;;;;;57.50;41.00;;;;;10.36;74.58;101364.41;5079203;27;45400;-65
2022/04/26 05:39:26;;;;;;;;;56.50;40.00;;;;;10.40;75.05;101362.59;5080027;27;45358;-65
2022/04/26 05:41:51;;;;;;;;;50.75;40.50;;;;;10.44;74.75;101366.91;5079678;27;45391;-65
2022/04/26 05:44:16;;;;;;;;;62.00;42.25;;;;;10.48;75.20;101374.59;5079436;28;45162;-65
2022/04/26 05:46:42;;;;;;;;;63.50;42.50;;;;;10.49;74.06;101373.72;5079289;27;45131;-66
2022/04/26 05:49:07;;;;;;;;;55.50;41.25;;;;;10.53;74.73;101379.72;5079351;27;45243;-65
2022/04/26 05:51:32;;;;;;;;;49.75;39.00;;;;;10.51;74.67;101374.56;5084258;27;45377;-65
2022/04/26 05:53:58;;;;;;;;;63.33;42.67;;;;;10.52;74.33;101381.47;5088567;27;45378;-65
2022/04/26 05:56:23;;;;;;;;;61.50;45.75;;;;;10.51;74.37;101382.34;5079401;27;45563;-66
2022/04/26 05:58:48;;;;;;;;;61.75;46.50;;;;;10.46;74.41;101378.97;5079307;27;46413;-65
2022/04/26 06:01:14;;;;;;;;;67.75;48.75;;;;;10.51;74.06;101382.34;5079439;27;45292;-65
2022/04/26 06:03:39;;;;;;;;;61.00;45.25;;;;;10.55;74.90;101381.41;5079053;28;45256;-67
2022/04/26 06:06:04;;;;;;;;;62.25;45.75;;;;;10.65;74.67;101388.19;5079133;28;45347;-66
2022/04/26 06:08:30;;;;;;;;;56.75;43.25;;;;;10.70;74.90;101377.69;5079472;27;46160;-67
2022/04/26 06:10:56;;;;;;;;;62.00;45.75;;;;;10.76;74.46;101387.13;5079384;27;45420;-68
2022/04/26 06:13:21;;;;;;;;;59.75;43.00;;;;;10.78;74.12;101380.13;5079288;27;45385;-66
2022/04/26 06:15:47;;;;;;;;;58.50;40.25;;;;;10.84;74.02;101374.84;5079174;27;45578;-67
2022/04/26 06:18:12;;;;;;;;;59.25;42.50;;;;;10.86;73.94;101378.28;5079317;28;46454;-67
2022/04/26 06:20:37;;;;;;;;;58.00;43.75;;;;;10.84;74.70;101380.91;5078999;27;45189;-67
2022/04/26 06:23:03;;;;;;;;;65.00;47.00;;;;;10.81;74.29;101377.47;5079335;27;45344;-68
2022/04/26 06:25:28;;;;;;;;;67.50;43.50;;;;;10.80;74.26;101384.41;5079478;28;45155;-67
2022/04/26 06:27:54;;;;;;;;;59.25;45.50;;;;;10.82;75.50;101400.03;5082170;27;45468;-67
2022/04/26 06:30:19;;;;;;;;;70.00;48.50;;;;;10.87;73.87;101395.59;5099916;27;46105;-67
2022/04/26 06:32:44;;;;;;;;;68.50;48.00;;;;;10.89;73.67;101392.06;5082567;27;45481;-66
2022/04/26 06:35:10;;;;;;;;;65.75;51.50;;;;;10.95;73.76;101394.56;5082277;28;45220;-65
2022/04/26 06:37:36;;;;;;;;;62.50;45.25;;;;;10.94;74.22;101399.78;5091796;27;45491;-66
2022/04/26 06:40:03;;;;;;;;;68.75;49.00;;;;;10.97;73.96;101408.38;5084603;27;45994;-65
2022/04/26 06:42:29;;;;;;;;;68.00;48.00;;;;;11.06;74.91;101412.56;5081951;27;45483;-66
2022/04/26 06:44:54;;;;;;;;;57.00;47.25;;;;;11.05;74.53;101410.00;5082095;27;45335;-65
2022/04/26 06:47:19;;;;;;;;;73.00;50.67;;;;;11.02;74.49;101421.31;5081000;28;46231;-65
2022/04/26 06:49:45;;;;;;;;;71.33;51.67;;;;;11.03;74.23;101407.44;5081630;28;45325;-65
2022/04/26 06:52:10;;;;;;;;;66.67;51.00;;;;;11.12;74.39;101402.03;5082104;27;45295;-64
2022/04/26 06:54:35;;;;;;;;;68.00;49.67;;;;;11.20;73.97;101402.75;5081104;27;45302;-65
2022/04/26 06:57:01;;;;;;;;;66.25;50.75;;;;;11.24;74.41;101411.38;5081795;28;46083;-65
2022/04/26 06:59:26;;;;;;;;;67.75;49.00;;;;;11.21;73.57;101407.09;5095244;27;45310;-65
2022/04/26 07:01:55;;;;;;;;;66.25;49.25;;;;;11.32;73.51;101419.00;5082484;27;45272;-65
2022/04/26 07:04:21;;;;;;;;;67.25;50.25;;;;;11.40;73.76;101415.34;5080453;28;45505;-65
2022/04/26 07:06:47;;;;;;;;;67.75;50.50;;;;;11.51;73.42;101420.34;5092884;27;45248;-66
2022/04/26 07:09:13;;;;;;;;;68.50;51.00;;;;;11.64;73.52;101421.84;5085189;27;45917;-66
2022/04/26 07:11:38;;;;;;;;;67.75;47.00;;;;;11.78;72.82;101424.13;5082166;27;45471;-65
2022/04/26 07:14:03;;;;;;;;;65.75;50.00;;;;;11.88;72.23;101418.72;5081592;27;45696;-64
2022/04/26 07:16:29;;;;;;;;;62.50;50.75;;;;;11.98;72.08;101421.13;5081840;27;46115;-64
2022/04/26 07:18:55;;;;;;;;;67.75;53.75;;;;;12.03;71.97;101421.91;5081194;27;45332;-65
2022/04/26 07:21:21;;;;;;;;;72.50;51.00;;;;;12.11;71.63;101430.38;5081913;27;45433;-65
2022/04/26 07:23:46;;;;;;;;;62.25;48.25;;;;;12.07;71.21;101426.13;5081326;27;45354;-66
2022/04/26 07:26:12;;;;;;;;;72.25;52.50;;;;;12.12;71.25;101429.50;5081714;27;46203;-66
2022/04/26 07:28:37;;;;;;;;;73.00;52.75;;;;;12.22;71.36;101427.53;5079799;27;45316;-66
2022/04/26 07:31:04;;;;;;;;;75.00;52.75;;;;;12.25;70.76;101430.94;5081928;27;45257;-66
2022/04/26 07:36:14;;;;;;;;;63.25;50.50;;;;;12.46;70.50;101438.25;5081306;27;45887;-66
2022/04/26 07:38:39;;;;;;;;;67.75;47.25;;;;;12.50;69.99;101444.22;5081907;27;45215;-65
2022/04/26 07:41:04;;;;;;;;;60.75;49.00;;;;;12.56;70.07;101440.59;5081802;27;45180;-65
2022/04/26 07:43:30;;;;;;;;;61.50;44.50;;;;;12.60;69.72;101442.25;5081117;27;45304;-66
2022/04/26 07:45:55;;;;;;;;;65.00;48.50;;;;;12.58;69.27;101451.84;5081508;27;46413;-66
2022/04/26 07:48:22;;;;;;;;;71.75;48.00;;;;;12.54;69.10;101445.00;5085949;27;45633;-66
2022/04/26 07:50:48;;;;;;;;;64.50;50.50;;;;;12.55;69.00;101454.53;5090811;27;45208;-66
2022/04/26 07:53:14;;;;;;;;;62.50;44.50;;;;;12.64;68.92;101460.41;5081320;27;45342;-66
2022/04/26 07:55:40;;;;;;;;;62.25;41.25;;;;;12.68;67.93;101472.47;5081268;27;45421;-66
2022/04/26 07:58:05;;;;;;;;;64.75;45.50;;;;;12.62;67.54;101469.16;5080885;27;45536;-66
2022/04/26 08:00:31;;;;;;;;;63.75;45.25;;;;;12.66;67.33;101473.41;5081536;27;45604;-66
2022/04/26 08:02:56;;;;;;;;;58.75;45.00;;;;;12.68;67.21;101477.69;5080948;28;45262;-65
2022/04/26 08:05:22;;;;;;;;;68.25;49.50;;;;;12.68;67.47;101479.44;5081100;27;46279;-65
2022/04/26 08:07:49;;;;;;;;;57.50;43.75;;;;;12.66;66.81;101481.22;5080519;27;45358;-66
2022/04/26 08:10:15;;;;;;;;;59.00;44.75;;;;;12.70;66.51;101490.69;5076306;27;45223;-67
2022/04/26 08:12:42;;;;;;;;;65.50;47.50;;;;;12.75;66.76;101489.66;5080726;27;45240;-67
2022/04/26 08:15:10;;;;;;;;;68.25;47.75;;;;;12.86;66.96;101493.78;5079589;28;46320;-67
2022/04/26 08:17:35;;;;;;;;;63.00;46.00;;;;;12.94;66.66;101490.06;5079373;28;45410;-65
2022/04/26 08:20:02;;;;;;;;;57.75;42.50;;;;;13.07;66.20;101495.84;5081447;28;45378;-65
2022/04/26 08:22:27;;;;;;;;;60.00;43.75;;;;;13.12;65.05;101493.97;5079801;28;45560;-65
2022/04/26 08:27:36;;;;;;;;;59.25;44.50;;;;;13.22;64.60;101495.50;5062467;27;45263;-66
2022/04/26 08:30:03;;;;;;;;;65.00;47.75;;;;;13.25;64.23;101499.78;5076284;27;45313;-66
2022/04/26 08:32:46;;;;;;;;;57.25;47.00;;;;;13.33;64.34;101508.25;5074340;27;45370;-66
2022/04/26 08:35:14;;;;;;;;;61.50;46.75;;;;;13.38;65.02;101508.97;5084936;27;45456;-66
2022/04/26 08:37:40;;;;;;;;;64.75;48.50;;;;;13.40;64.48;101507.16;5090183;27;45335;-65
2022/04/26 08:40:07;;;;;;;;;63.25;45.75;;;;;13.43;64.85;101514.09;5084891;27;45461;-65
2022/04/26 08:42:37;;;;;;;;;69.00;50.00;;;;;13.50;64.19;101519.09;5080164;27;45312;-66
2022/04/26 08:45:05;;;;;;;;;65.00;47.00;;;;;13.40;63.16;101526.31;5080357;27;46312;-65
2022/04/26 08:52:58;;;;;;;;;61.25;42.25;;;;;13.34;63.78;101530.84;5080527;28;45255;-65
2022/04/26 08:55:24;;;;;;;;;67.25;48.00;;;;;13.37;63.92;101521.16;5080281;27;45981;-66
2022/04/26 08:57:50;;;;;;;;;66.75;46.25;;;;;13.53;63.05;101525.97;5080102;27;45164;-66
2022/04/26 09:00:16;;;;;;;;;58.50;44.50;;;;;13.70;62.47;101531.59;5080613;28;45197;-67
2022/04/26 09:02:41;;;;;;;;;61.00;44.00;;;;;13.86;63.18;101529.44;5086529;27;45435;-65
2022/04/26 09:05:16;;;;;;;;;67.50;49.25;;;;;14.03;62.51;101516.75;5078989;27;45460;-70
2022/04/26 09:07:45;;;;;;;;;65.00;48.25;;;;;14.20;62.23;101529.28;5078834;27;45308;-69
2022/04/26 09:10:16;;;;;;;;;57.00;45.00;;;;;14.24;60.82;101537.00;5079086;27;45297;-68
2022/04/26 09:13:09;;;;;;;;;61.25;47.50;;;;;14.25;59.73;101530.03;5078344;27;45477;-65
2022/04/26 09:15:54;;;;;;;;;61.75;45.75;;;;;14.26;61.04;101539.56;5071484;27;47074;-65
2022/04/26 09:18:30;;;;;;;;;61.25;47.25;;;;;14.19;60.57;101538.88;5077363;28;45605;-66
2022/04/26 09:20:58;;;;;;;;;60.75;46.00;;;;;14.10;60.32;101548.78;5078461;28;45582;-66
2022/04/26 09:23:25;;;;;;;;;59.75;47.25;;;;;13.92;61.07;101555.38;5078222;27;45554;-65
2022/04/26 09:26:12;;;;;;;;;66.00;48.75;;;;;13.86;61.07;101558.16;5078458;27;46260;-66
2022/04/26 09:28:42;;;;;;;;;57.00;44.00;;;;;13.80;61.43;101560.94;5072848;27;46005;-66
2022/04/26 09:31:20;;;;;;;;;64.75;48.00;;;;;13.75;61.39;101566.28;5076138;28;45311;-64
2022/04/26 09:33:47;;;;;;;;;58.75;44.50;;;;;13.70;61.79;101555.13;5078332;28;45299;-64
2022/04/26 09:36:14;;;;;;;;;62.75;45.00;;;;;13.59;60.94;101568.44;5078291;28;47319;-65
2022/04/26 09:38:48;;;;;;;;;63.25;43.25;;;;;13.60;61.60;101570.16;5078200;28;45792;-64
2022/04/26 09:41:14;;;;;;;;;63.75;43.25;;;;;13.59;61.51;101563.22;5078237;27;45468;-67
2022/04/26 09:43:40;;;;;;;;;56.50;41.25;;;;;13.62;61.73;101573.63;5077461;28;45497;-65
2022/04/26 09:46:06;;;;;;;;;70.25;49.75;;;;;13.61;61.62;101565.78;5080492;27;46288;-63
2022/04/26 09:48:37;;;;;;;;;62.25;44.75;;;;;13.63;61.99;101571.88;5075535;27;45260;-64
2022/04/26 09:51:04;;;;;;;;;61.25;45.50;;;;;13.67;61.79;101574.34;5071293;28;45401;-64
2022/04/26 09:53:31;;;;;;;;;67.75;44.00;;;;;13.78;61.56;101584.50;5076663;28;45294;-64
2022/04/26 09:55:57;;;;;;;;;66.50;48.25;;;;;13.89;61.79;101578.97;5075149;28;47405;-64
2022/04/26 09:58:24;;;;;;;;;66.25;47.50;;;;;13.99;61.26;101578.66;5077627;27;45431;-65
2022/04/26 10:00:51;;;;;;;;;58.75;45.75;;;;;13.98;61.01;101579.56;5080554;27;45474;-65
2022/04/26 10:03:29;;;;;;;;;68.00;51.50;;;;;13.94;61.17;101577.94;5077232;28;45409;-65
2022/04/26 10:06:06;;;;;;;;;60.25;45.25;;;;;13.98;61.18;101589.16;5079672;27;46284;-65
2022/04/26 10:08:34;;;;;;;;;60.00;44.00;;;;;14.04;60.29;101590.78;5081328;27;45336;-68
2022/04/26 10:11:01;;;;;;;;;65.75;49.00;;;;;14.13;60.28;101567.81;5081398;27;45292;-67
2022/04/26 10:13:32;;;;;;;;;63.75;45.00;;;;;14.25;58.77;101582.31;5080787;27;45398;-68
2022/04/26 10:16:21;;;;;;;;;60.75;43.00;;;;;14.33;59.17;101588.16;5079469;28;46407;-70
2022/04/26 10:18:48;;;;;;;;;61.75;43.00;;;;;14.37;59.39;101576.69;5077969;28;45282;-65
2022/04/26 10:21:22;;;;;;;;;56.00;42.50;;;;;14.56;59.21;101580.50;5078229;27;45251;-67
2022/04/26 10:23:50;;;;;;;;;60.25;44.25;;;;;14.78;58.69;101585.06;5078743;28;46508;-67
2022/04/26 10:28:51;;;;;;;;;63.00;45.00;;;;;15.34;58.82;101585.00;5080292;27;45897;-65
2022/04/26 10:31:20;;;;;;;;;61.50;45.25;;;;;15.64;55.36;101591.00;5080833;27;45286;-65
2022/04/26 10:33:46;;;;;;;;;55.50;43.75;;;;;15.92;55.86;101581.25;5078969;27;45304;-65
2022/04/26 10:36:27;;;;;;;;;59.25;46.25;;;;;16.04;55.02;101588.66;5080318;27;46788;-66
2022/04/26 10:39:13;;;;;;;;;68.25;50.00;;;;;16.06;55.79;101592.09;5080046;28;45240;-66
2022/04/26 10:41:40;;;;;;;;;61.25;45.25;;;;;16.06;54.99;101591.22;5077623;28;45486;-67
2022/04/26 10:44:17;;;;;;;;;53.50;44.50;;;;;16.06;54.91;101596.47;5078868;27;45263;-68
2022/04/26 10:46:50;;;;;;;;;55.75;45.25;;;;;16.15;53.58;101595.28;5076714;28;45581;-70
2022/04/26 10:49:24;;;;;;;;;57.75;44.00;;;;;16.23;54.01;101595.88;5079627;27;47043;-67
2022/04/26 10:51:57;;;;;;;;;56.00;43.50;;;;;16.29;54.42;101585.13;5077608;27;45468;-68
2022/04/26 10:57:17;;;;;;;;;59.00;46.00;;;;;16.37;55.11;101585.69;5079990;28;45430;-65
2022/04/26 10:59:48;;;;;;;;;58.00;42.50;;;;;16.44;54.70;101584.56;5078041;27;46009;-67
2022/04/26 11:02:18;;;;;;;;;56.00;45.50;;;;;16.43;54.88;101591.56;5080559;28;45282;-67
2022/04/26 11:04:44;;;;;;;;;55.75;44.75;;;;;16.37;54.04;101591.78;5079519;27;45429;-67
2022/04/26 11:07:14;;;;;;;;;58.25;43.25;;;;;16.28;53.98;101581.66;5080673;28;45524;-69
2022/04/26 11:09:50;;;;;;;;;44.75;35.00;;;;;16.29;52.35;101585.13;5078269;28;45849;-70
2022/04/26 11:12:23;;;;;;;;;60.00;45.75;;;;;16.26;52.00;101587.88;5078401;27;45219;-70
2022/04/26 11:14:50;;;;;;;;;55.75;42.00;;;;;16.18;52.93;101590.75;5079015;28;45601;-68
2022/04/26 11:17:18;;;;;;;;;59.25;46.00;;;;;16.15;53.55;101590.03;5077817;27;45418;-70
2022/04/26 11:19:54;;;;;;;;;55.75;43.50;;;;;16.19;53.07;101587.22;5079165;28;45523;-69
2022/04/26 11:22:20;;;;;;;;;40.25;36.00;;;;;16.31;53.20;101578.06;5076319;28;45642;-67
2022/04/26 11:30:32;;;;;;;;;55.00;41.50;;;;;16.93;52.89;101586.13;5053610;28;45229;-70
2022/04/26 11:33:03;;;;;;;;;45.25;34.50;;;;;17.03;51.09;101590.09;5057524;28;45767;-72
2022/04/26 11:35:29;;;;;;;;;55.00;42.00;;;;;16.99;51.29;101583.25;5059970;28;45417;-69
2022/04/26 11:37:57;;;;;;;;;51.75;39.50;;;;;17.02;52.15;101584.91;5059893;28;45599;-69
2022/04/26 11:40:23;;;;;;;;;51.50;40.75;;;;;16.99;50.50;101588.50;5059730;28;45415;-68
2022/04/26 11:42:50;;;;;;;;;49.25;38.50;;;;;16.89;50.99;101586.31;5059680;28;45794;-67
2022/04/26 11:45:16;;;;;;;;;47.50;37.25;;;;;16.79;51.32;101590.22;5059417;28;45491;-67
2022/04/26 11:47:45;;;;;;;;;53.00;41.50;;;;;16.75;51.29;101596.50;5058038;28;47269;-66
2022/04/26 11:50:13;;;;;;;;;52.50;36.50;;;;;16.77;50.70;101586.78;5059636;28;45851;-66
2022/04/26 11:52:38;;;;;;;;;52.00;41.00;;;;;16.84;51.45;101575.16;5057077;28;45480;-69
2022/04/26 11:55:05;;;;;;;;;49.00;39.00;;;;;16.95;51.51;101589.53;5059569;28;45353;-68
2022/04/26 11:57:31;;;;;;;;;50.00;37.50;;;;;16.93;50.56;101595.78;5057703;28;48921;-64
2022/04/26 11:59:58;;;;;;;;;44.00;33.50;;;;;16.85;50.34;101593.47;5053935;28;45380;-63
2022/04/26 12:02:25;;;;;;;;;48.00;37.00;;;;;16.72;49.81;101595.72;5059482;28;45285;-63
2022/04/26 12:04:52;;;;;;;;;47.75;37.00;;;;;16.68;50.80;101594.13;5059889;28;45449;-63
2022/04/26 12:07:18;;;;;;;;;49.25;38.50;;;;;16.68;50.30;101588.88;5054503;28;46528;-64
2022/04/26 12:09:43;;;;;;;;;50.25;36.75;;;;;16.64;50.55;101584.63;5050946;28;45490;-63
2022/04/26 12:12:10;;;;;;;;;48.50;39.25;;;;;16.69;51.30;101585.34;5056695;28;46003;-63
2022/04/26 12:14:40;;;;;;;;;41.75;36.25;;;;;16.89;51.49;101591.56;5058002;28;45499;-65
2022/04/26 12:17:18;;;;;;;;;47.50;39.75;;;;;17.05;50.42;101595.28;5075829;28;47242;-63
2022/04/26 12:19:50;;;;;;;;;49.75;39.75;;;;;17.17;49.65;101599.16;5060810;28;45315;-62
2022/04/26 12:22:17;;;;;;;;;33.75;33.00;;;;;17.17;49.58;101593.91;5057795;28;45348;-62
2022/04/26 12:24:48;;;;;;;;;42.00;31.50;;;;;17.13;48.93;101593.19;5042397;28;45299;-64
2022/04/26 12:27:16;;;;;;;;;47.75;34.75;;;;;17.16;49.37;101600.94;5059016;28;47266;-64
2022/04/26 12:29:46;;;;;;;;;45.00;35.00;;;;;17.19;48.02;101598.19;5060284;28;45411;-65
2022/04/26 12:32:15;;;;;;;;;45.25;36.50;;;;;17.32;49.59;101596.78;5059069;28;45424;-69
2022/04/26 12:35:00;;;;;;;;;48.25;35.75;;;;;17.48;50.16;101594.34;5060699;28;45482;-67
2022/04/26 12:37:31;;;;;;;;;42.50;34.00;;;;;17.63;47.92;101592.84;5060500;28;45251;-66
2022/04/26 12:39:58;;;;;;;;;35.00;31.50;;;;;17.85;48.45;101585.75;5048987;28;45974;-65
2022/04/26 12:42:27;;;;;;;;;33.75;31.25;;;;;18.09;47.48;101590.84;5060352;28;45360;-65
2022/04/26 12:45:00;;;;;;;;;39.25;33.50;;;;;18.16;46.97;101590.47;5060444;28;45251;-63
2022/04/26 12:50:30;;;;;;;;;38.50;33.50;;;;;18.08;46.82;101578.63;5060334;28;45204;-64
2022/04/26 12:52:57;;;;;;;;;35.00;31.75;;;;;17.90;47.55;101578.50;5093199;27;45441;-64
2022/04/26 12:55:25;;;;;;;;;45.00;32.50;;;;;17.82;47.37;101583.28;5060566;28;45327;-64
2022/04/26 12:57:53;;;;;;;;;35.75;30.00;;;;;17.80;45.17;101574.56;5059473;28;45501;-64
2022/04/26 13:00:23;;;;;;;;;36.75;31.75;;;;;17.87;46.51;101575.19;5058794;28;45625;-63
2022/04/26 13:02:51;;;;;;;;;35.25;32.50;;;;;18.14;46.64;101570.44;5055354;28;45512;-65
2022/04/26 13:05:17;;;;;;;;;32.75;31.00;;;;;18.23;44.73;101567.41;5052665;28;45459;-63
2022/04/26 13:07:45;;;;;;;;;27.50;26.25;;;;;18.15;46.10;101572.13;5059026;28;45413;-63
2022/04/26 13:10:11;;;;;;;;;36.50;31.50;;;;;18.07;45.55;101576.91;5060009;28;45235;-63
2022/04/26 13:12:37;;;;;;;;;35.75;32.00;;;;;18.02;47.09;101563.09;5057640;28;45442;-63
2022/04/26 13:15:02;;;;;;;;;36.50;29.00;;;;;18.13;46.42;101566.94;5059004;28;45394;-64
2022/04/26 13:17:28;;;;;;;;;33.00;28.75;;;;;18.26;46.07;101569.03;5061314;28;45407;-64
2022/04/26 13:19:54;;;;;;;;;41.25;33.50;;;;;18.36;45.60;101565.88;5057926;28;45569;-67
2022/04/26 13:22:21;;;;;;;;;36.75;31.25;;;;;18.46;44.24;101558.44;5058312;28;45548;-70
2022/04/26 13:24:46;;;;;;;;;38.00;32.75;;;;;18.47;45.93;101560.13;5059701;28;45351;-70
2022/04/26 13:27:12;;;;;;;;;33.00;30.50;;;;;18.51;45.46;101561.69;5057346;28;45460;-63
2022/04/26 13:29:38;;;;;;;;;34.00;27.75;;;;;18.53;45.39;101559.84;5057339;28;45463;-66
2022/04/26 13:32:04;;;;;;;;;34.50;31.00;;;;;18.62;44.38;101561.16;5057515;28;45398;-65
2022/04/26 13:34:30;;;;;;;;;39.00;31.75;;;;;18.60;45.20;101555.97;5058341;28;45376;-65
2022/04/26 13:36:55;;;;;;;;;36.25;30.50;;;;;18.58;45.38;101549.94;5055791;28;45255;-65
2022/04/26 13:39:21;;;;;;;;;34.75;29.75;;;;;18.68;44.35;101548.59;5048368;28;45497;-65
2022/04/26 13:41:50;;;;;;;;;30.75;27.25;;;;;18.75;45.62;101546.53;5053716;28;45575;-65
2022/04/26 13:44:19;;;;;;;;;30.00;27.75;;;;;18.89;45.30;101556.38;5055380;28;45455;-66
2022/04/26 13:46:48;;;;;;;;;31.75;27.25;;;;;18.99;42.56;101547.09;5057324;28;46985;-66
2022/04/26 13:49:14;;;;;;;;;32.25;30.00;;;;;19.01;43.80;101543.44;5054809;28;45950;-66
2022/04/26 13:51:39;;;;;;;;;33.75;31.50;;;;;19.02;43.85;101545.19;5056239;28;45397;-66
2022/04/26 13:54:04;;;;;;;;;29.75;29.00;;;;;19.03;43.73;101525.81;5054499;28;45394;-65
2022/04/26 13:56:30;;;;;;;;;31.50;29.50;;;;;19.05;43.88;101539.75;5058527;28;45311;-64
2022/04/26 13:58:55;;;;;;;;;39.25;30.75;;;;;19.09;43.24;101536.03;5055825;28;45346;-66
2022/04/26 14:01:22;;;;;;;;;29.50;29.50;;;;;19.09;43.40;101529.91;5056286;28;45461;-67
2022/04/26 14:03:49;;;;;;;;;36.50;31.00;;;;;19.17;44.38;101533.00;5056558;28;45395;-68
2022/04/26 14:06:15;;;;;;;;;37.75;28.50;;;;;19.03;43.68;101528.44;5057975;28;45433;-76
2022/04/26 14:08:43;;;;;;;;;37.75;32.00;;;;;18.84;43.96;101535.56;5056918;28;45801;-66
2022/04/26 14:11:08;;;;;;;;;34.00;32.00;;;;;18.72;43.59;101530.88;5058108;28;45430;-65
2022/04/26 14:21:47;;;;;;;;;36.25;31.50;;;;;18.52;44.09;101522.13;5058056;28;45408;-65
2022/04/26 14:21:50;;;;;;;;;38.00;31.25;;;;;18.16;44.57;101526.50;5054610;28;45429;-63
2022/04/26 14:24:15;;;;;;;;;31.00;26.50;;;;;18.41;44.47;101531.44;5057030;28;45371;-62
2022/04/26 14:26:43;;;;;;;;;33.75;27.25;;;;;18.71;45.22;101524.75;5057135;28;46278;-64
2022/04/26 14:29:08;;;;;;;;;27.50;25.00;;;;;19.12;44.34;101522.69;5056881;28;45262;-65
2022/04/26 14:31:35;;;;;;;;;26.75;26.25;;;;;19.37;42.68;101526.72;5057460;28;45330;-64
2022/04/26 14:34:01;;;;;;;;;23.25;18.25;;;;;19.21;42.25;101521.38;5057135;28;45602;-64
2022/04/26 14:36:27;;;;;;;;;25.50;22.50;;;;;18.98;42.20;101519.91;5056738;28;45374;-65
2022/04/26 14:38:52;;;;;;;;;24.75;21.00;;;;;18.90;42.64;101529.97;5056740;28;45374;-64
2022/04/26 14:41:17;;;;;;;;;20.00;17.25;;;;;18.87;43.11;101524.88;5056648;28;45296;-64
2022/04/26 14:43:42;;;;;;;;;28.00;26.75;;;;;19.08;43.31;101521.16;5057953;28;45989;-64
2022/04/26 14:46:08;;;;;;;;;26.50;25.50;;;;;19.66;42.12;101517.31;5055939;28;45499;-64
2022/04/26 14:48:33;;;;;;;;;25.00;23.75;;;;;20.57;41.54;101527.28;5058477;28;45387;-64
2022/04/26 14:50:59;;;;;;;;;23.50;22.50;;;;;21.31;36.82;101524.75;5057991;28;45668;-64
2022/04/26 14:53:24;;;;;;;;;25.25;20.50;;;;;21.74;34.67;101519.50;5060129;28;45863;-64
2022/04/26 14:55:50;;;;;;;;;19.00;16.75;;;;;21.59;36.14;101523.91;5060364;28;46552;-64
2022/04/26 14:58:18;;;;;;;;;19.00;16.00;;;;;21.21;36.88;101520.91;5061007;28;45374;-64
2022/04/26 15:00:43;;;;;;;;;19.25;17.00;;;;;21.04;38.08;101521.06;5060643;28;45457;-65
2022/04/26 15:03:09;;;;;;;;;23.50;18.25;;;;;21.87;38.58;101517.78;5059404;28;45462;-66
2022/04/26 15:05:34;;;;;;;;;19.75;16.00;;;;;22.64;36.83;101527.03;5059475;28;46996;-65
2022/04/26 15:10:43;;;;;;;;;18.00;18.00;;;;;24.61;32.10;101523.91;5060268;28;45451;-65
2022/04/26 15:18:37;;;;;;;;;17.75;14.75;;;;;23.88;31.85;101525.63;5057980;28;45896;-66
2022/04/26 15:21:06;;;;;;;;;18.50;16.00;;;;;23.90;31.31;101526.34;5057313;28;45540;-66
2022/04/26 15:23:33;;;;;;;;;19.25;17.00;;;;;23.33;32.22;101516.16;5056865;28;45246;-65
2022/04/26 15:25:58;;;;;;;;;19.75;18.00;;;;;22.76;33.15;101519.09;5059601;28;46379;-66
2022/04/26 15:28:24;;;;;;;;;22.00;18.00;;;;;22.66;34.33;101519.81;5059213;28;45479;-65